Terminal Aerodrome Forecast
Issued by NWS Boston, MA

Home | Current Version | Previous Version | Text Only | Print | Product List | Glossary On
Versions: 1 2 3 4 5 6 7 8 9 10 11 12 13 14 15 16 17 18 19 20 21 22 23 24 25 26 27 28 29 30 31 32 33 34 35 36 37 38 39 40 41 42 43 44 45 46
826
FTUS41 KBOX 061122
TAFBDL
TAF
KBDL 061122Z 0612/0718 04007KT P6SM -RA OVC035
     FM061900 07009KT P6SM -RA BKN025
     FM062300 09008KT P6SM -RA OVC015
     FM070100 07006KT P6SM VCSH OVC008
     FM071600 13005KT P6SM VCSH BKN010=

USA.gov is the U.S. government's official web portal to all federal, state and local government web resources and services.